Terminal Aerodrome Forecast
Issued by NWS

Home | Current Version | Previous Version | Text Only | Print | Product List | Glossary On
Versions: 1 2 3 4 5 6 7 8 9 10 11 12 13 14
062
FTUS42 TJSJ 271746
TAFIST
TAF
TIST 271746Z 2718/2818 09015G22KT P6SM FEW035
     FM272300 08011KT P6SM FEW025 SCT040
     FM281000 07017G22KT P6SM SCT025 SCT040=

USA.gov is the U.S. government's official web portal to all federal, state and local government web resources and services.